Aiken, Texas
Current Conditions -  °F | °C
As of 8:15 AM on Friday 19 Dec 2014 (Local Time) from KPVW Reporting Station
Overcast Overcast  
Wind Chill: 32°   Ceiling: 400
Heat Index: 37°   Visibility: 7mi
Dew Point: 36°   Wind: 7mph
Humidity: 95%   Direction: 140°SE
Pressure: 30.13"   Gusts: NA
Location:  34.14°N, 101.53°W
Report Text: KPVW 191415Z AUTO 14006KT 7SM OVC004 03/02 A3013 RMK AO2 T00300023
Loading
Personal Weather Stations






























Interactive Weather Map New forecast layout! Learn more

10-Day Weather Forecast

Advertisements
Track Severe Weather on mobile